createdAt,value
2019-01-23T00:01:31.219Z,21.20
2019-01-23T00:04:12.888Z,20.40
2019-01-23T00:06:55.231Z,19.10
2019-01-23T00:09:37.142Z,19.70
2019-01-23T00:12:19.420Z,19.10
2019-01-23T00:15:03.268Z,18.97
2019-01-23T00:17:44.809Z,18.53
2019-01-23T00:20:28.050Z,19.40
2019-01-23T00:23:10.113Z,18.90
2019-01-23T00:25:51.818Z,18.47
2019-01-23T00:28:33.485Z,18.83
2019-01-23T00:31:16.736Z,18.23
2019-01-23T00:33:59.022Z,19.00
2019-01-23T00:36:41.190Z,19.17
2019-01-23T00:39:26.256Z,18.90
2019-01-23T00:42:08.273Z,18.90
2019-01-23T00:44:50.712Z,18.17
2019-01-23T00:47:32.910Z,19.40
2019-01-23T00:50:14.694Z,19.43
2019-01-23T00:52:56.902Z,18.23
2019-01-23T00:55:39.188Z,18.73
2019-01-23T00:58:21.340Z,18.57
2019-01-23T01:01:03.392Z,18.33
2019-01-23T01:03:45.344Z,19.27
2019-01-23T01:06:27.271Z,18.70
2019-01-23T01:09:09.711Z,20.17
2019-01-23T01:11:51.909Z,18.63
2019-01-23T01:14:37.463Z,18.67
2019-01-23T01:17:20.223Z,19.57
2019-01-23T01:20:02.314Z,20.33
2019-01-23T01:22:44.311Z,20.40
2019-01-23T01:25:26.380Z,19.87
2019-01-23T01:27:56.588Z,19.90
2019-01-23T01:30:45.865Z,19.73
2019-01-23T01:33:48.152Z,19.50
2019-01-23T01:36:29.979Z,20.43
2019-01-23T01:39:12.622Z,19.73
2019-01-23T01:41:54.922Z,20.40
2019-01-23T01:50:08.573Z,20.53
2019-01-23T01:52:51.082Z,20.30
2019-01-23T01:55:33.089Z,20.47
2019-01-23T01:58:15.151Z,20.03
2019-01-23T02:00:59.184Z,20.80
2019-01-23T02:03:40.979Z,20.23
2019-01-23T02:06:24.066Z,20.20
2019-01-23T02:09:06.218Z,18.30
2019-01-23T02:11:48.966Z,19.97
2019-01-23T02:14:31.948Z,19.70
2019-01-23T02:17:13.783Z,20.53
2019-01-23T02:19:56.080Z,18.53
2019-01-23T02:22:37.582Z,19.43
2019-01-23T02:25:19.569Z,19.40
2019-01-23T02:28:02.334Z,19.83
2019-01-23T02:30:44.401Z,19.27
2019-01-23T02:33:26.274Z,17.60
2019-01-23T02:36:08.337Z,17.33
2019-01-23T02:38:49.890Z,18.07
2019-01-23T02:41:31.902Z,17.60
2019-01-23T02:44:13.733Z,16.33
2019-01-23T02:46:56.117Z,16.70
2019-01-23T02:49:38.019Z,16.90
2019-01-23T02:52:20.490Z,15.90
2019-01-23T02:55:02.378Z,14.97
2019-01-23T02:57:44.721Z,16.10
2019-01-23T03:00:26.441Z,15.77
2019-01-23T03:03:08.364Z,14.97
2019-01-23T03:05:50.251Z,15.30
2019-01-23T03:08:31.976Z,15.57
2019-01-23T03:11:14.380Z,15.47
2019-01-23T03:13:56.746Z,16.97
2019-01-23T03:16:38.679Z,17.10
2019-01-23T03:19:20.747Z,17.43
2019-01-23T03:22:02.994Z,16.43
2019-01-23T03:24:45.267Z,16.90
2019-01-23T03:27:27.167Z,15.93
2019-01-23T03:30:09.130Z,16.40
2019-01-23T03:32:51.448Z,15.67
2019-01-23T03:35:35.526Z,17.53
2019-01-23T03:38:18.427Z,17.07
2019-01-23T03:41:00.585Z,17.33
2019-01-23T03:43:42.565Z,16.70
2019-01-23T03:46:24.449Z,17.90
2019-01-23T03:49:06.297Z,18.17
2019-01-23T03:51:48.419Z,17.53
2019-01-23T03:54:18.666Z,18.17
2019-01-23T03:57:09.034Z,17.00
2019-01-23T03:59:51.003Z,17.63
2019-01-23T04:02:33.368Z,17.87
2019-01-23T04:05:15.681Z,17.43
2019-01-23T04:07:57.629Z,18.77
2019-01-23T04:10:39.562Z,18.50
2019-01-23T04:13:21.663Z,18.63
2019-01-23T04:16:04.288Z,18.83
2019-01-23T04:18:46.147Z,17.70
2019-01-23T04:21:28.082Z,19.00
2019-01-23T04:24:10.137Z,18.30
2019-01-23T04:26:52.360Z,18.07
2019-01-23T04:29:39.514Z,17.63
2019-01-23T04:32:16.988Z,17.33
2019-01-23T04:34:58.862Z,18.10
2019-01-23T04:37:42.932Z,17.23
2019-01-23T04:40:25.305Z,18.23
2019-01-23T04:43:07.192Z,18.17
2019-01-23T04:45:49.445Z,17.50
2019-01-23T04:48:31.420Z,16.30
2019-01-23T04:54:56.194Z,16.57
2019-01-23T04:57:38.126Z,16.63
2019-01-23T05:00:23.542Z,16.67
2019-01-23T05:03:05.366Z,16.80
2019-01-23T05:05:47.197Z,17.03
2019-01-23T05:08:29.083Z,17.43
2019-01-23T05:11:11.300Z,18.10
2019-01-23T05:13:53.102Z,18.20
2019-01-23T05:16:35.344Z,18.20
2019-01-23T05:19:17.589Z,17.87
2019-01-23T05:21:59.213Z,17.93
2019-01-23T05:24:41.176Z,18.63
2019-01-23T05:27:24.627Z,18.23
2019-01-23T05:30:05.990Z,18.87
2019-01-23T05:32:47.564Z,19.53
2019-01-23T05:35:30.501Z,19.77
2019-01-23T05:38:12.132Z,19.60
2019-01-23T05:40:54.192Z,19.83
2019-01-23T05:43:36.179Z,19.97
2019-01-23T05:46:17.722Z,18.93
2019-01-23T05:48:59.796Z,19.53
2019-01-23T05:51:42.299Z,19.40
2019-01-23T05:54:24.116Z,19.50
2019-01-23T05:57:06.030Z,18.83
2019-01-23T05:59:48.215Z,19.60
2019-01-23T06:02:30.111Z,20.43
2019-01-23T06:05:11.985Z,19.97
2019-01-23T06:07:54.668Z,20.30
2019-01-23T06:10:37.554Z,19.17
2019-01-23T06:13:07.675Z,19.67
2019-01-23T06:15:56.800Z,18.17
2019-01-23T06:18:39.159Z,19.53
2019-01-23T06:21:09.361Z,19.37
2019-01-23T06:23:58.604Z,18.73
2019-01-23T06:29:21.441Z,19.90
2019-01-23T06:32:03.210Z,20.47
2019-01-23T06:34:44.647Z,20.10
2019-01-23T06:37:26.585Z,20.40
2019-01-23T06:40:08.243Z,20.90
2019-01-23T06:42:49.636Z,19.93
2019-01-23T06:45:31.331Z,19.97
2019-01-23T06:48:13.740Z,20.00
2019-01-23T06:50:55.901Z,20.13
2019-01-23T06:53:37.631Z,20.50
2019-01-23T06:56:19.941Z,19.17
2019-01-23T06:59:02.208Z,18.43
2019-01-23T07:01:43.703Z,19.10
2019-01-23T07:04:25.760Z,19.90
2019-01-23T07:07:07.500Z,20.33
2019-01-23T07:09:49.444Z,19.27
2019-01-23T07:12:31.556Z,19.43
2019-01-23T07:15:13.242Z,21.13
2019-01-23T07:17:56.151Z,19.73
2019-01-23T07:20:37.776Z,20.47
2019-01-23T07:23:20.065Z,19.80
2019-01-23T07:26:01.884Z,19.70
2019-01-23T07:28:49.128Z,20.00
2019-01-23T07:31:27.803Z,21.23
2019-01-23T07:34:09.554Z,21.43
2019-01-23T07:36:52.756Z,20.70
2019-01-23T07:39:34.592Z,20.20
2019-01-23T07:42:16.361Z,21.23
2019-01-23T07:44:58.211Z,21.13
2019-01-23T07:47:40.505Z,21.57
2019-01-23T07:50:23.403Z,20.83
2019-01-23T07:53:05.124Z,20.07
2019-01-23T07:55:47.093Z,20.70
2019-01-23T07:58:29.333Z,22.00
2019-01-23T08:01:10.958Z,21.40
2019-01-23T08:03:52.302Z,22.03
2019-01-23T08:06:34.471Z,21.43
2019-01-23T08:09:16.843Z,21.50
2019-01-23T08:11:58.701Z,20.33
2019-01-23T08:14:41.964Z,22.50
2019-01-23T08:17:24.694Z,21.00
2019-01-23T08:20:06.623Z,20.83
2019-01-23T08:22:49.790Z,21.87
2019-01-23T08:25:31.417Z,21.40
2019-01-23T08:28:13.273Z,21.93
2019-01-23T08:30:55.253Z,21.37
2019-01-23T08:33:37.130Z,21.73
2019-01-23T08:36:19.292Z,20.70
2019-01-23T08:39:01.300Z,21.37
2019-01-23T08:41:43.695Z,20.47
2019-01-23T08:44:25.702Z,21.07
2019-01-23T08:47:07.593Z,21.17
2019-01-23T08:49:49.084Z,22.73
2019-01-23T08:52:31.097Z,21.37
2019-01-23T08:55:13.277Z,21.00
2019-01-23T08:57:55.588Z,20.17
2019-01-23T09:00:37.810Z,21.87
2019-01-23T09:03:19.611Z,22.07
2019-01-23T09:06:01.297Z,22.07
2019-01-23T09:08:43.146Z,20.17
2019-01-23T09:11:25.377Z,20.70
2019-01-23T09:14:07.516Z,21.87
2019-01-23T09:16:49.396Z,21.93
2019-01-23T09:19:31.427Z,21.30
2019-01-23T09:22:14.003Z,22.23
2019-01-23T09:24:55.566Z,21.97
2019-01-23T09:27:37.809Z,22.03
2019-01-23T09:30:20.071Z,21.93
2019-01-23T09:33:02.620Z,21.80
2019-01-23T09:35:44.002Z,22.60
2019-01-23T09:38:26.115Z,21.57
2019-01-23T09:41:08.683Z,21.67
2019-01-23T09:43:51.273Z,23.27
2019-01-23T09:46:33.561Z,21.87
2019-01-23T09:49:15.151Z,23.00
2019-01-23T09:51:56.538Z,21.47
2019-01-23T09:54:38.512Z,23.00
2019-01-23T09:57:20.717Z,23.23
2019-01-23T10:00:02.351Z,22.93
2019-01-23T10:02:44.312Z,22.03
2019-01-23T10:05:26.020Z,23.43
2019-01-23T10:08:07.808Z,22.27
2019-01-23T10:10:49.614Z,23.20
2019-01-23T10:13:31.121Z,23.67
2019-01-23T10:16:15.153Z,23.27
2019-01-23T10:18:56.721Z,22.77
2019-01-23T10:21:38.285Z,23.30
2019-01-23T10:24:20.597Z,23.23
2019-01-23T10:27:02.867Z,23.80
2019-01-23T10:29:44.681Z,24.53
2019-01-23T10:32:26.787Z,23.80
2019-01-23T10:35:08.778Z,24.70
2019-01-23T10:37:50.533Z,23.83
2019-01-23T10:40:32.959Z,25.17
2019-01-23T10:43:15.078Z,24.10
2019-01-23T10:45:57.399Z,24.10
2019-01-23T10:48:38.128Z,23.40
2019-01-23T10:51:20.454Z,24.53
2019-01-23T10:54:01.968Z,25.30
2019-01-23T10:56:44.222Z,24.33
2019-01-23T10:59:26.137Z,23.67
2019-01-23T11:02:08.579Z,24.63
2019-01-23T11:04:49.992Z,25.47
2019-01-23T11:07:32.634Z,25.30
2019-01-23T11:10:14.724Z,25.33
2019-01-23T11:12:56.784Z,25.10
2019-01-23T11:15:39.136Z,25.27
2019-01-23T11:18:20.638Z,24.40
2019-01-23T11:21:02.293Z,25.73
2019-01-23T11:23:44.310Z,26.33
2019-01-23T11:26:26.365Z,26.27
2019-01-23T11:29:08.199Z,25.73
2019-01-23T11:31:50.094Z,27.13
2019-01-23T11:34:32.109Z,27.37
2019-01-23T11:37:14.109Z,27.20
2019-01-23T11:39:57.830Z,28.27
2019-01-23T11:42:39.798Z,28.03
2019-01-23T11:45:21.606Z,28.03
2019-01-23T11:48:03.818Z,28.40
2019-01-23T11:50:45.559Z,28.07
2019-01-23T11:53:27.668Z,27.63
2019-01-23T11:56:09.458Z,28.43
2019-01-23T11:58:50.918Z,29.07
2019-01-23T12:01:32.823Z,29.67
2019-01-23T12:04:15.536Z,30.37
2019-01-23T12:06:45.680Z,29.03
2019-01-23T12:12:35.813Z,29.17
2019-01-23T12:15:17.906Z,30.90
2019-01-23T12:17:59.804Z,32.00
2019-01-23T12:20:41.674Z,30.87
2019-01-23T12:23:23.530Z,31.93
2019-01-23T12:26:12.559Z,31.03
2019-01-23T12:29:01.852Z,30.63
2019-01-23T12:31:43.627Z,29.27
2019-01-23T12:34:25.840Z,30.97
2019-01-23T12:37:07.456Z,30.20
2019-01-23T12:39:49.480Z,31.13
2019-01-23T12:42:31.321Z,29.73
2019-01-23T12:45:13.279Z,30.97
2019-01-23T12:47:55.062Z,32.40
2019-01-23T12:50:36.956Z,31.93
2019-01-23T12:53:19.833Z,33.73
2019-01-23T12:55:50.055Z,33.17
2019-01-23T12:58:33.159Z,33.17
2019-01-23T13:01:15.748Z,32.43
2019-01-23T13:03:57.468Z,33.33
2019-01-23T13:06:39.191Z,32.60
2019-01-23T13:09:21.076Z,32.40
2019-01-23T13:12:03.294Z,32.53
2019-01-23T13:17:41.644Z,34.50
2019-01-23T13:20:24.658Z,34.80
2019-01-23T13:23:07.826Z,35.07
2019-01-23T13:25:39.071Z,35.43
2019-01-23T13:28:28.193Z,36.90
2019-01-23T13:30:58.308Z,36.53
2019-01-23T13:33:28.394Z,35.37
2019-01-23T13:36:10.644Z,35.47
2019-01-23T13:38:52.618Z,36.77
2019-01-23T13:41:22.871Z,34.90
2019-01-23T13:44:12.325Z,34.43
2019-01-23T13:47:14.302Z,35.30
2019-01-23T13:49:55.984Z,35.07
2019-01-23T13:52:37.602Z,36.93
2019-01-23T13:55:19.313Z,36.00
2019-01-23T13:58:01.159Z,34.80
2019-01-23T14:00:42.735Z,35.93
2019-01-23T14:03:26.509Z,35.43
2019-01-23T14:06:08.351Z,35.97
2019-01-23T14:08:50.180Z,36.67
2019-01-23T14:11:33.014Z,35.80
2019-01-23T14:14:15.158Z,36.47
2019-01-23T14:16:59.379Z,35.03
2019-01-23T14:19:41.889Z,35.67
2019-01-23T14:22:23.374Z,34.90
2019-01-23T14:25:05.537Z,33.87
2019-01-23T14:27:47.854Z,35.23
2019-01-23T14:30:29.869Z,34.80
2019-01-23T14:33:11.672Z,36.10
2019-01-23T14:35:54.736Z,34.20
2019-01-23T14:38:36.467Z,34.03
2019-01-23T14:41:18.222Z,34.37
2019-01-23T14:44:01.301Z,34.80
2019-01-23T14:46:42.933Z,34.90
2019-01-23T14:49:26.213Z,34.43
2019-01-23T14:52:07.780Z,34.83
2019-01-23T14:54:49.936Z,34.07
2019-01-23T14:57:31.753Z,34.93
2019-01-23T15:00:13.860Z,36.10
2019-01-23T15:02:56.803Z,36.57
2019-01-23T15:05:38.366Z,35.53
2019-01-23T15:08:19.955Z,36.10
2019-01-23T15:11:02.095Z,36.13
2019-01-23T15:13:45.260Z,35.67
2019-01-23T15:16:27.163Z,37.40
2019-01-23T15:19:09.094Z,36.17
2019-01-23T15:21:51.931Z,37.60
2019-01-23T15:24:33.908Z,37.03
2019-01-23T15:27:19.285Z,36.50
2019-01-23T15:30:01.309Z,37.03
2019-01-23T15:32:43.163Z,37.37
2019-01-23T15:35:25.093Z,37.67
2019-01-23T15:38:07.213Z,37.27
2019-01-23T15:40:48.822Z,38.00
2019-01-23T15:43:31.025Z,37.93
2019-01-23T15:46:15.273Z,37.53
2019-01-23T15:48:56.897Z,39.33
2019-01-23T15:51:38.816Z,37.77
2019-01-23T15:54:08.861Z,37.73
2019-01-23T15:56:58.047Z,39.13
2019-01-23T15:59:39.910Z,40.50
2019-01-23T16:02:24.471Z,38.50
2019-01-23T16:05:04.891Z,39.50
2019-01-23T16:07:47.085Z,39.17
2019-01-23T16:10:22.742Z,39.50
2019-01-23T16:13:11.934Z,39.40
2019-01-23T16:15:53.720Z,40.07
2019-01-23T16:18:36.044Z,40.47
2019-01-23T16:21:17.677Z,42.03
2019-01-23T16:23:59.984Z,41.23
2019-01-23T16:26:42.238Z,40.73
2019-01-23T16:29:24.140Z,41.77
2019-01-23T16:32:05.989Z,43.73
2019-01-23T16:34:49.166Z,41.67
2019-01-23T16:37:31.201Z,43.07
2019-01-23T16:40:13.361Z,41.60
2019-01-23T16:42:55.783Z,43.63
2019-01-23T16:45:38.084Z,42.60
2019-01-23T16:48:20.078Z,42.47
2019-01-23T16:51:02.648Z,45.13
2019-01-23T16:53:44.252Z,43.87
2019-01-23T16:56:26.219Z,42.13
2019-01-23T16:59:08.133Z,42.87
2019-01-23T17:01:49.865Z,41.60
2019-01-23T17:04:32.078Z,42.53
2019-01-23T17:07:13.801Z,43.00
2019-01-23T17:09:56.120Z,42.20
2019-01-23T17:12:37.646Z,41.03
2019-01-23T17:15:20.034Z,41.53
2019-01-23T17:18:01.953Z,41.63
2019-01-23T17:20:44.699Z,43.00
2019-01-23T17:23:26.709Z,42.50
2019-01-23T17:26:08.969Z,40.63
2019-01-23T17:28:51.024Z,40.93
2019-01-23T17:31:33.390Z,41.53
2019-01-23T17:34:15.459Z,43.53
2019-01-23T17:36:57.228Z,43.90
2019-01-23T17:39:39.196Z,42.83
2019-01-23T17:42:21.443Z,43.53
2019-01-23T17:45:03.365Z,41.97
2019-01-23T17:47:45.732Z,41.93
2019-01-23T17:50:27.617Z,42.87
2019-01-23T17:53:10.049Z,43.63
2019-01-23T17:55:51.977Z,43.17
2019-01-23T17:58:34.167Z,43.53
2019-01-23T18:01:15.914Z,42.90
2019-01-23T18:03:58.281Z,43.83
2019-01-23T18:06:40.465Z,43.87
2019-01-23T18:09:22.927Z,44.90
2019-01-23T18:12:05.161Z,43.33
2019-01-23T18:14:49.182Z,44.17
2019-01-23T18:17:31.720Z,47.03
2019-01-23T18:20:14.075Z,44.77
2019-01-23T18:22:56.250Z,44.77
2019-01-23T18:25:39.163Z,46.27
2019-01-23T18:28:20.979Z,44.57
2019-01-23T18:31:03.076Z,44.90
2019-01-23T18:33:44.913Z,47.40
2019-01-23T18:36:26.992Z,47.00
2019-01-23T18:39:09.114Z,46.10
2019-01-23T18:41:50.921Z,45.80
2019-01-23T18:44:32.885Z,47.33
2019-01-23T18:47:14.841Z,47.37
2019-01-23T18:49:56.769Z,48.47
2019-01-23T18:52:38.469Z,48.57
2019-01-23T18:55:20.437Z,46.40
2019-01-23T18:58:02.909Z,46.93
2019-01-23T19:00:44.641Z,46.70
2019-01-23T19:03:26.097Z,45.67
2019-01-23T19:05:56.277Z,45.80
2019-01-23T19:08:47.460Z,45.93
2019-01-23T19:11:29.226Z,46.50
2019-01-23T19:13:59.403Z,46.13
2019-01-23T19:17:00.790Z,48.33
2019-01-23T19:19:51.856Z,48.33
2019-01-23T19:22:34.014Z,47.37
2019-01-23T19:25:16.077Z,47.97
2019-01-23T19:27:58.106Z,47.70
2019-01-23T19:30:39.969Z,46.83
2019-01-23T19:33:21.747Z,47.87
2019-01-23T19:36:04.029Z,48.10
2019-01-23T19:38:46.086Z,48.30
2019-01-23T19:41:28.237Z,49.77
2019-01-23T19:44:10.206Z,48.53
2019-01-23T19:46:51.982Z,48.07
2019-01-23T19:49:34.880Z,49.20
2019-01-23T19:52:16.798Z,48.87
2019-01-23T19:54:58.864Z,47.80
2019-01-23T19:57:41.215Z,46.77
2019-01-23T20:00:23.163Z,46.37
2019-01-23T20:03:05.534Z,49.07
2019-01-23T20:05:47.587Z,46.63
2019-01-23T20:08:30.493Z,46.83
2019-01-23T20:11:12.320Z,44.77
2019-01-23T20:13:56.625Z,47.60
2019-01-23T20:16:38.518Z,46.50
2019-01-23T20:19:20.742Z,45.33
2019-01-23T20:22:02.923Z,46.37
2019-01-23T20:24:45.081Z,47.63
2019-01-23T20:27:26.940Z,44.97
2019-01-23T20:30:08.737Z,45.63
2019-01-23T20:32:50.767Z,46.33
2019-01-23T20:35:32.949Z,45.13
2019-01-23T20:38:15.884Z,44.60
2019-01-23T20:40:58.124Z,45.57
2019-01-23T20:43:39.838Z,44.50
2019-01-23T20:46:21.582Z,45.77
2019-01-23T20:49:04.903Z,44.30
2019-01-23T20:51:46.925Z,44.63
2019-01-23T20:54:29.122Z,44.43
2019-01-23T20:57:11.077Z,44.10
2019-01-23T20:59:54.124Z,46.13
2019-01-23T21:02:36.029Z,46.17
2019-01-23T21:05:18.089Z,46.93
2019-01-23T21:08:00.106Z,45.40
2019-01-23T21:10:42.246Z,45.63
2019-01-23T21:13:24.513Z,45.70
2019-01-23T21:16:07.430Z,44.90
2019-01-23T21:18:49.686Z,45.13
2019-01-23T21:21:31.126Z,46.23
2019-01-23T21:24:13.181Z,48.53
2019-01-23T21:26:43.477Z,48.73
2019-01-23T21:32:39.120Z,50.13
2019-01-23T21:35:20.903Z,46.67
2019-01-23T21:38:03.517Z,46.47
2019-01-23T21:40:45.198Z,45.77
2019-01-23T21:43:27.027Z,45.53
2019-01-23T21:46:08.810Z,46.77
2019-01-23T21:48:51.773Z,45.60
2019-01-23T21:51:33.514Z,46.53
2019-01-23T21:54:15.721Z,45.90
2019-01-23T21:56:57.891Z,46.70
2019-01-23T21:59:39.885Z,45.73
2019-01-23T22:02:22.199Z,47.03
2019-01-23T22:05:03.704Z,45.90
2019-01-23T22:07:45.980Z,43.70
2019-01-23T22:10:27.946Z,44.53
2019-01-23T22:13:09.698Z,45.43
2019-01-23T22:15:51.548Z,44.27
2019-01-23T22:18:33.905Z,45.37
2019-01-23T22:21:15.462Z,45.63
2019-01-23T22:23:57.454Z,44.00
2019-01-23T22:26:41.335Z,44.93
2019-01-23T22:29:23.280Z,44.33
2019-01-23T22:32:05.240Z,44.83
2019-01-23T22:34:48.654Z,44.17
2019-01-23T22:37:30.576Z,43.93
2019-01-23T22:40:12.348Z,44.20
2019-01-23T22:42:54.280Z,43.80
2019-01-23T22:45:36.470Z,43.83
2019-01-23T22:48:18.311Z,43.43
2019-01-23T22:51:00.427Z,41.63
2019-01-23T22:53:42.378Z,43.87
2019-01-23T22:56:24.271Z,42.20
2019-01-23T22:59:05.931Z,45.10
2019-01-23T23:01:47.929Z,42.87
2019-01-23T23:04:29.447Z,44.90
2019-01-23T23:07:10.947Z,42.83
2019-01-23T23:09:53.086Z,42.60
2019-01-23T23:12:35.108Z,41.87
2019-01-23T23:15:17.470Z,42.40
2019-01-23T23:17:59.437Z,40.50
2019-01-23T23:20:41.457Z,40.97
2019-01-23T23:23:23.735Z,39.87
2019-01-23T23:26:05.618Z,40.27
2019-01-23T23:28:48.843Z,39.73
2019-01-23T23:31:31.628Z,39.67
2019-01-23T23:34:13.689Z,38.80
2019-01-23T23:36:55.544Z,39.17
2019-01-23T23:39:38.399Z,39.20
2019-01-23T23:42:20.261Z,39.30
2019-01-23T23:45:02.646Z,39.23
2019-01-23T23:47:44.723Z,39.47
2019-01-23T23:50:27.616Z,39.93
2019-01-23T23:53:09.035Z,41.13
2019-01-23T23:55:50.955Z,40.37
2019-01-23T23:58:32.983Z,39.93
